sensor_id;sensor_type;location;lat;lon;timestamp;pressure;altitude;pressure_sealevel;temperature;humidity
3206;BME280;1615;53.602;11.418;2023-03-13T00:01:11;99920.06;;;7.84;100.00
3206;BME280;1615;53.602;11.418;2023-03-13T00:03:37;99913.69;;;7.89;100.00
3206;BME280;1615;53.602;11.418;2023-03-13T00:06:02;99906.25;;;7.94;100.00
3206;BME280;1615;53.602;11.418;2023-03-13T00:08:28;99900.50;;;7.96;100.00
3206;BME280;1615;53.602;11.418;2023-03-13T00:10:54;99903.75;;;7.98;100.00
3206;BME280;1615;53.602;11.418;2023-03-13T00:13:19;99893.44;;;7.95;100.00
3206;BME280;1615;53.602;11.418;2023-03-13T00:15:45;99910.88;;;7.94;100.00
3206;BME280;1615;53.602;11.418;2023-03-13T00:18:10;99753.91;;;7.00;100.00
3206;BME280;1615;53.602;11.418;2023-03-13T00:20:35;99913.31;;;7.95;100.00
3206;BME280;1615;53.602;11.418;2023-03-13T00:23:01;99899.41;;;7.97;100.00
3206;BME280;1615;53.602;11.418;2023-03-13T00:25:26;99798.41;;;7.33;100.00
3206;BME280;1615;53.602;11.418;2023-03-13T00:27:51;99901.91;;;7.93;100.00
3206;BME280;1615;53.602;11.418;2023-03-13T00:30:17;99898.34;;;7.93;100.00
3206;BME280;1615;53.602;11.418;2023-03-13T00:32:43;99903.75;;;7.98;100.00
3206;BME280;1615;53.602;11.418;2023-03-13T00:35:10;99901.00;;;7.98;100.00
3206;BME280;1615;53.602;11.418;2023-03-13T00:37:36;99888.41;;;8.02;100.00
3206;BME280;1615;53.602;11.418;2023-03-13T00:40:02;99885.06;;;8.05;100.00
3206;BME280;1615;53.602;11.418;2023-03-13T00:42:28;99869.97;;;7.94;100.00
3206;BME280;1615;53.602;11.418;2023-03-13T00:44:53;99875.78;;;8.06;100.00
3206;BME280;1615;53.602;11.418;2023-03-13T00:47:19;99879.59;;;8.05;100.00
3206;BME280;1615;53.602;11.418;2023-03-13T00:49:44;99872.72;;;8.07;100.00
3206;BME280;1615;53.602;11.418;2023-03-13T00:52:09;99863.22;;;8.05;100.00
3206;BME280;1615;53.602;11.418;2023-03-13T00:54:35;99859.91;;;8.08;100.00
3206;BME280;1615;53.602;11.418;2023-03-13T00:57:00;99853.53;;;8.12;100.00
3206;BME280;1615;53.602;11.418;2023-03-13T00:59:25;99849.13;;;8.16;100.00
3206;BME280;1615;53.602;11.418;2023-03-13T01:01:50;99851.53;;;8.18;100.00
3206;BME280;1615;53.602;11.418;2023-03-13T01:04:16;99848.75;;;8.23;100.00
3206;BME280;1615;53.602;11.418;2023-03-13T01:06:41;99854.22;;;8.23;100.00
3206;BME280;1615;53.602;11.418;2023-03-13T01:09:09;99852.00;;;8.25;100.00
3206;BME280;1615;53.602;11.418;2023-03-13T01:11:37;99834.16;;;8.14;100.00
3206;BME280;1615;53.602;11.418;2023-03-13T01:14:05;99845.50;;;8.21;100.00
3206;BME280;1615;53.602;11.418;2023-03-13T01:16:33;99852.59;;;8.22;100.00
3206;BME280;1615;53.602;11.418;2023-03-13T01:19:01;99839.47;;;8.24;100.00
3206;BME280;1615;53.602;11.418;2023-03-13T01:21:27;99720.00;;;7.57;100.00
3206;BME280;1615;53.602;11.418;2023-03-13T01:23:53;99683.00;;;7.37;100.00
3206;BME280;1615;53.602;11.418;2023-03-13T01:26:20;99819.22;;;8.25;100.00
3206;BME280;1615;53.602;11.418;2023-03-13T01:28:45;99817.03;;;8.27;100.00
3206;BME280;1615;53.602;11.418;2023-03-13T01:31:20;99810.53;;;8.23;100.00
3206;BME280;1615;53.602;11.418;2023-03-13T01:33:47;99806.50;;;8.20;100.00
3206;BME280;1615;53.602;11.418;2023-03-13T01:36:13;99715.88;;;7.59;100.00
3206;BME280;1615;53.602;11.418;2023-03-13T01:38:39;99773.06;;;8.10;100.00
3206;BME280;1615;53.602;11.418;2023-03-13T01:41:06;99795.19;;;8.27;100.00
3206;BME280;1615;53.602;11.418;2023-03-13T01:43:34;99802.75;;;8.30;100.00
3206;BME280;1615;53.602;11.418;2023-03-13T01:46:04;99796.50;;;8.29;100.00
3206;BME280;1615;53.602;11.418;2023-03-13T01:51:28;99778.81;;;8.27;100.00
3206;BME280;1615;53.602;11.418;2023-03-13T01:54:09;99773.84;;;8.29;100.00
3206;BME280;1615;53.602;11.418;2023-03-13T01:56:55;99621.63;;;7.40;100.00
3206;BME280;1615;53.602;11.418;2023-03-13T01:59:36;99756.34;;;8.30;100.00
3206;BME280;1615;53.602;11.418;2023-03-13T02:02:04;99702.72;;;8.07;100.00
3206;BME280;1615;53.602;11.418;2023-03-13T02:04:34;99752.50;;;8.31;100.00
3206;BME280;1615;53.602;11.418;2023-03-13T02:07:03;99747.13;;;8.26;100.00
3206;BME280;1615;53.602;11.418;2023-03-13T02:09:31;99740.34;;;8.23;100.00
3206;BME280;1615;53.602;11.418;2023-03-13T02:12:15;99746.44;;;8.20;100.00
3206;BME280;1615;53.602;11.418;2023-03-13T02:14:44;99738.94;;;8.26;100.00
3206;BME280;1615;53.602;11.418;2023-03-13T02:17:10;99724.41;;;8.30;100.00
3206;BME280;1615;53.602;11.418;2023-03-13T02:19:41;99724.41;;;8.30;100.00
3206;BME280;1615;53.602;11.418;2023-03-13T02:27:22;99711.25;;;8.32;100.00
3206;BME280;1615;53.602;11.418;2023-03-13T02:29:48;99643.47;;;7.94;100.00
3206;BME280;1615;53.602;11.418;2023-03-13T02:32:14;99702.25;;;8.32;100.00
3206;BME280;1615;53.602;11.418;2023-03-13T02:34:41;99692.84;;;8.38;100.00
3206;BME280;1615;53.602;11.418;2023-03-13T02:37:07;99679.69;;;8.40;100.00
3206;BME280;1615;53.602;11.418;2023-03-13T02:39:38;99682.13;;;8.41;100.00
3206;BME280;1615;53.602;11.418;2023-03-13T02:42:06;99574.38;;;7.85;100.00
3206;BME280;1615;53.602;11.418;2023-03-13T02:44:37;99679.97;;;8.52;100.00
3206;BME280;1615;53.602;11.418;2023-03-13T02:47:02;99665.72;;;8.55;100.00
3206;BME280;1615;53.602;11.418;2023-03-13T02:49:29;99665.72;;;8.55;100.00
3206;BME280;1615;53.602;11.418;2023-03-13T02:52:35;99654.78;;;8.55;100.00
3206;BME280;1615;53.602;11.418;2023-03-13T02:54:57;99659.44;;;8.54;100.00
3206;BME280;1615;53.602;11.418;2023-03-13T02:57:24;99653.97;;;8.54;100.00
3206;BME280;1615;53.602;11.418;2023-03-13T02:59:49;99641.63;;;8.57;100.00
3206;BME280;1615;53.602;11.418;2023-03-13T03:02:15;99632.75;;;8.51;100.00
3206;BME280;1615;53.602;11.418;2023-03-13T03:04:40;99637.06;;;8.66;100.00
3206;BME280;1615;53.602;11.418;2023-03-13T03:07:05;99629.97;;;8.65;100.00
3206;BME280;1615;53.602;11.418;2023-03-13T03:09:31;99478.75;;;7.68;100.00
3206;BME280;1615;53.602;11.418;2023-03-13T03:11:57;99630.66;;;8.70;100.00
3206;BME280;1615;53.602;11.418;2023-03-13T03:14:22;99619.13;;;8.73;100.00
3206;BME280;1615;53.602;11.418;2023-03-13T03:16:47;99613.06;;;8.63;100.00
3206;BME280;1615;53.602;11.418;2023-03-13T03:19:13;99610.44;;;8.58;100.00
3206;BME280;1615;53.602;11.418;2023-03-13T03:21:38;99615.91;;;8.58;100.00
3206;BME280;1615;53.602;11.418;2023-03-13T03:24:04;99615.91;;;8.58;100.00
3206;BME280;1615;53.602;11.418;2023-03-13T03:26:30;99606.63;;;8.59;100.00
3206;BME280;1615;53.602;11.418;2023-03-13T03:28:55;99608.06;;;8.56;100.00
3206;BME280;1615;53.602;11.418;2023-03-13T03:31:21;99496.97;;;7.94;100.00
3206;BME280;1615;53.602;11.418;2023-03-13T03:33:47;99595.94;;;8.49;100.00
3206;BME280;1615;53.602;11.418;2023-03-13T03:36:15;99598.16;;;8.47;100.00
3206;BME280;1615;53.602;11.418;2023-03-13T03:38:42;99592.06;;;8.50;100.00
3206;BME280;1615;53.602;11.418;2023-03-13T03:41:09;99594.31;;;8.48;100.00
3206;BME280;1615;53.602;11.418;2023-03-13T03:43:34;99584.38;;;8.52;100.00
3206;BME280;1615;53.602;11.418;2023-03-13T03:46:00;99582.41;;;8.44;100.00
3206;BME280;1615;53.602;11.418;2023-03-13T03:48:25;99592.19;;;8.45;100.00
3206;BME280;1615;53.602;11.418;2023-03-13T03:50:51;99582.47;;;8.52;100.00
3206;BME280;1615;53.602;11.418;2023-03-13T03:53:16;99572.16;;;8.49;100.00
3206;BME280;1615;53.602;11.418;2023-03-13T03:55:41;99571.84;;;8.51;100.00
3206;BME280;1615;53.602;11.418;2023-03-13T03:58:07;99568.63;;;8.49;100.00
3206;BME280;1615;53.602;11.418;2023-03-13T04:00:32;99562.75;;;8.42;100.00
3206;BME280;1615;53.602;11.418;2023-03-13T04:02:57;99555.09;;;8.44;100.00
3206;BME280;1615;53.602;11.418;2023-03-13T04:05:23;99500.13;;;8.10;100.00
3206;BME280;1615;53.602;11.418;2023-03-13T04:07:49;99541.72;;;8.42;100.00
3206;BME280;1615;53.602;11.418;2023-03-13T04:10:14;99513.47;;;8.25;100.00
3206;BME280;1615;53.602;11.418;2023-03-13T04:12:40;99477.72;;;8.13;100.00
3206;BME280;1615;53.602;11.418;2023-03-13T04:15:05;99531.50;;;8.48;100.00
3206;BME280;1615;53.602;11.418;2023-03-13T04:17:31;99520.88;;;8.46;100.00
3206;BME280;1615;53.602;11.418;2023-03-13T04:19:57;99513.00;;;8.45;100.00
3206;BME280;1615;53.602;11.418;2023-03-13T04:22:22;99446.78;;;8.04;100.00
3206;BME280;1615;53.602;11.418;2023-03-13T04:24:48;99498.22;;;8.46;100.00
3206;BME280;1615;53.602;11.418;2023-03-13T04:27:13;99472.59;;;8.33;100.00
3206;BME280;1615;53.602;11.418;2023-03-13T04:29:38;99502.06;;;8.45;100.00
3206;BME280;1615;53.602;11.418;2023-03-13T04:32:04;99479.63;;;8.48;100.00
3206;BME280;1615;53.602;11.418;2023-03-13T04:34:29;99478.16;;;8.50;100.00
3206;BME280;1615;53.602;11.418;2023-03-13T04:36:55;99470.31;;;8.49;100.00
3206;BME280;1615;53.602;11.418;2023-03-13T04:39:20;99434.81;;;8.27;100.00
3206;BME280;1615;53.602;11.418;2023-03-13T04:41:50;99457.13;;;8.51;100.00
3206;BME280;1615;53.602;11.418;2023-03-13T04:44:16;99454.09;;;8.52;100.00
3206;BME280;1615;53.602;11.418;2023-03-13T04:46:41;99447.81;;;8.52;100.00
3206;BME280;1615;53.602;11.418;2023-03-13T04:49:06;99439.03;;;8.55;100.00
3206;BME280;1615;53.602;11.418;2023-03-13T04:51:32;99429.41;;;8.57;100.00
3206;BME280;1615;53.602;11.418;2023-03-13T04:53:57;99417.66;;;8.57;100.00
3206;BME280;1615;53.602;11.418;2023-03-13T04:56:26;99422.50;;;8.60;100.00
3206;BME280;1615;53.602;11.418;2023-03-13T04:58:52;99417.81;;;8.60;100.00
3206;BME280;1615;53.602;11.418;2023-03-13T05:01:17;99372.44;;;8.42;100.00
3206;BME280;1615;53.602;11.418;2023-03-13T05:03:43;99403.44;;;8.68;100.00
3206;BME280;1615;53.602;11.418;2023-03-13T05:06:08;99277.44;;;8.00;100.00
3206;BME280;1615;53.602;11.418;2023-03-13T05:08:33;99385.59;;;8.71;100.00
3206;BME280;1615;53.602;11.418;2023-03-13T05:11:00;99374.38;;;8.72;100.00
3206;BME280;1615;53.602;11.418;2023-03-13T05:13:26;99368.56;;;8.74;100.00
3206;BME280;1615;53.602;11.418;2023-03-13T05:15:51;99357.03;;;8.77;100.00
3206;BME280;1615;53.602;11.418;2023-03-13T05:18:16;99353.81;;;8.75;100.00
3206;BME280;1615;53.602;11.418;2023-03-13T05:20:42;99343.97;;;8.74;100.00
3206;BME280;1615;53.602;11.418;2023-03-13T05:23:07;99347.53;;;8.74;100.00
3206;BME280;1615;53.602;11.418;2023-03-13T05:25:32;99350.72;;;8.76;100.00
3206;BME280;1615;53.602;11.418;2023-03-13T05:27:58;99321.19;;;8.78;100.00
3206;BME280;1615;53.602;11.418;2023-03-13T05:30:23;99335.63;;;8.79;100.00
3206;BME280;1615;53.602;11.418;2023-03-13T05:32:48;99330.19;;;8.79;100.00
3206;BME280;1615;53.602;11.418;2023-03-13T05:35:14;99311.88;;;8.79;100.00
3206;BME280;1615;53.602;11.418;2023-03-13T05:37:39;99200.59;;;8.07;100.00
3206;BME280;1615;53.602;11.418;2023-03-13T05:40:05;99330.50;;;8.77;100.00
3206;BME280;1615;53.602;11.418;2023-03-13T05:42:30;99291.00;;;8.83;100.00
3206;BME280;1615;53.602;11.418;2023-03-13T05:44:56;99207.59;;;8.30;100.00
3206;BME280;1615;53.602;11.418;2023-03-13T05:47:21;99287.75;;;8.81;100.00
3206;BME280;1615;53.602;11.418;2023-03-13T05:49:46;99273.47;;;8.84;100.00
3206;BME280;1615;53.602;11.418;2023-03-13T05:52:12;99272.50;;;8.89;100.00
3206;BME280;1615;53.602;11.418;2023-03-13T05:54:37;99269.63;;;8.94;100.00
3206;BME280;1615;53.602;11.418;2023-03-13T05:57:03;99259.97;;;8.88;100.00
3206;BME280;1615;53.602;11.418;2023-03-13T05:59:28;99256.94;;;8.98;100.00
3206;BME280;1615;53.602;11.418;2023-03-13T06:01:53;99246.16;;;9.01;100.00
3206;BME280;1615;53.602;11.418;2023-03-13T06:04:19;99238.78;;;9.02;100.00
3206;BME280;1615;53.602;11.418;2023-03-13T06:06:45;99235.72;;;9.03;100.00
3206;BME280;1615;53.602;11.418;2023-03-13T06:09:11;99164.06;;;8.25;100.00
3206;BME280;1615;53.602;11.418;2023-03-13T06:11:36;99232.03;;;9.08;100.00
3206;BME280;1615;53.602;11.418;2023-03-13T06:14:02;99210.47;;;8.98;100.00
3206;BME280;1615;53.602;11.418;2023-03-13T06:16:27;99217.22;;;9.09;100.00
3206;BME280;1615;53.602;11.418;2023-03-13T06:18:52;99093.78;;;8.39;100.00
3206;BME280;1615;53.602;11.418;2023-03-13T06:21:18;99204.03;;;9.11;100.00
3206;BME280;1615;53.602;11.418;2023-03-13T06:23:43;99212.09;;;9.16;100.00
3206;BME280;1615;53.602;11.418;2023-03-13T06:26:08;99277.69;;;9.16;100.00
3206;BME280;1615;53.602;11.418;2023-03-13T06:28:34;99209.84;;;9.18;100.00
3206;BME280;1615;53.602;11.418;2023-03-13T06:31:03;99219.34;;;9.20;100.00
3206;BME280;1615;53.602;11.418;2023-03-13T06:33:29;99211.44;;;9.19;100.00
3206;BME280;1615;53.602;11.418;2023-03-13T06:35:55;99183.47;;;9.05;100.00
3206;BME280;1615;53.602;11.418;2023-03-13T06:38:20;99156.44;;;8.95;100.00
3206;BME280;1615;53.602;11.418;2023-03-13T06:40:46;99169.94;;;9.17;100.00
3206;BME280;1615;53.602;11.418;2023-03-13T06:43:11;99139.09;;;9.08;100.00
3206;BME280;1615;53.602;11.418;2023-03-13T06:45:36;99164.00;;;9.23;100.00
3206;BME280;1615;53.602;11.418;2023-03-13T06:48:03;99184.91;;;9.28;100.00
3206;BME280;1615;53.602;11.418;2023-03-13T06:50:28;99161.41;;;9.27;100.00
3206;BME280;1615;53.602;11.418;2023-03-13T06:52:53;99163.84;;;9.20;100.00
3206;BME280;1615;53.602;11.418;2023-03-13T06:55:19;99146.16;;;9.26;100.00
3206;BME280;1615;53.602;11.418;2023-03-13T06:57:49;99149.69;;;9.35;100.00
3206;BME280;1615;53.602;11.418;2023-03-13T07:00:14;99134.22;;;9.39;100.00
3206;BME280;1615;53.602;11.418;2023-03-13T07:02:40;99120.03;;;9.45;100.00
3206;BME280;1615;53.602;11.418;2023-03-13T07:05:06;99139.97;;;9.54;100.00
3206;BME280;1615;53.602;11.418;2023-03-13T07:07:32;99052.44;;;9.08;100.00
3206;BME280;1615;53.602;11.418;2023-03-13T07:09:58;99116.19;;;9.55;100.00
3206;BME280;1615;53.602;11.418;2023-03-13T07:12:23;99072.16;;;9.31;100.00
3206;BME280;1615;53.602;11.418;2023-03-13T07:14:48;99098.44;;;9.61;100.00
3206;BME280;1615;53.602;11.418;2023-03-13T07:17:14;99114.88;;;9.61;100.00
3206;BME280;1615;53.602;11.418;2023-03-13T07:19:39;99102.78;;;9.62;100.00
3206;BME280;1615;53.602;11.418;2023-03-13T07:22:05;99066.19;;;9.37;100.00
3206;BME280;1615;53.602;11.418;2023-03-13T07:24:30;99080.44;;;9.60;100.00
3206;BME280;1615;53.602;11.418;2023-03-13T07:26:56;99068.47;;;9.73;100.00
3206;BME280;1615;53.602;11.418;2023-03-13T07:29:21;99039.59;;;9.55;100.00
3206;BME280;1615;53.602;11.418;2023-03-13T07:31:46;99083.28;;;9.72;100.00
3206;BME280;1615;53.602;11.418;2023-03-13T07:34:12;99065.25;;;9.71;100.00
3206;BME280;1615;53.602;11.418;2023-03-13T07:36:37;99071.28;;;9.85;100.00
3206;BME280;1615;53.602;11.418;2023-03-13T07:39:04;99066.91;;;9.92;100.00
3206;BME280;1615;53.602;11.418;2023-03-13T07:41:29;99060.78;;;9.95;100.00
3206;BME280;1615;53.602;11.418;2023-03-13T07:43:55;99073.47;;;10.00;100.00
3206;BME280;1615;53.602;11.418;2023-03-13T07:46:20;99073.91;;;10.10;100.00
3206;BME280;1615;53.602;11.418;2023-03-13T07:48:46;99052.56;;;10.04;100.00
3206;BME280;1615;53.602;11.418;2023-03-13T07:51:23;99057.66;;;10.14;100.00
3206;BME280;1615;53.602;11.418;2023-03-13T07:53:49;99036.41;;;10.11;100.00
3206;BME280;1615;53.602;11.418;2023-03-13T07:56:17;99045.38;;;10.20;100.00
3206;BME280;1615;53.602;11.418;2023-03-13T07:58:42;98962.34;;;9.78;100.00
3206;BME280;1615;53.602;11.418;2023-03-13T08:01:25;99029.00;;;10.32;100.00
3206;BME280;1615;53.602;11.418;2023-03-13T08:03:52;99022.50;;;10.36;100.00
3206;BME280;1615;53.602;11.418;2023-03-13T08:06:20;99014.22;;;10.45;100.00
3206;BME280;1615;53.602;11.418;2023-03-13T08:08:47;99022.44;;;10.45;100.00
3206;BME280;1615;53.602;11.418;2023-03-13T08:11:17;99024.97;;;10.50;100.00
3206;BME280;1615;53.602;11.418;2023-03-13T08:13:43;99013.69;;;10.51;100.00
3206;BME280;1615;53.602;11.418;2023-03-13T08:16:15;99016.34;;;10.60;100.00
3206;BME280;1615;53.602;11.418;2023-03-13T08:18:45;98974.97;;;10.41;100.00
3206;BME280;1615;53.602;11.418;2023-03-13T08:21:13;99002.66;;;10.60;100.00
3206;BME280;1615;53.602;11.418;2023-03-13T08:23:40;98989.28;;;10.58;100.00
3206;BME280;1615;53.602;11.418;2023-03-13T08:26:10;98988.75;;;10.65;100.00
3206;BME280;1615;53.602;11.418;2023-03-13T08:28:36;98967.44;;;10.50;100.00
3206;BME280;1615;53.602;11.418;2023-03-13T08:31:10;98999.50;;;10.70;100.00
3206;BME280;1615;53.602;11.418;2023-03-13T08:33:37;98885.69;;;10.07;100.00
3206;BME280;1615;53.602;11.418;2023-03-13T08:36:27;98988.41;;;10.66;100.00
3206;BME280;1615;53.602;11.418;2023-03-13T08:38:54;98954.47;;;10.59;100.00
3206;BME280;1615;53.602;11.418;2023-03-13T08:41:22;98994.50;;;10.72;100.00
3206;BME280;1615;53.602;11.418;2023-03-13T08:43:50;98902.56;;;10.30;100.00
3206;BME280;1615;53.602;11.418;2023-03-13T08:46:18;98976.34;;;10.79;100.00
3206;BME280;1615;53.602;11.418;2023-03-13T08:48:44;98973.28;;;10.81;100.00
3206;BME280;1615;53.602;11.418;2023-03-13T08:51:14;98960.94;;;10.87;100.00
3206;BME280;1615;53.602;11.418;2023-03-13T08:53:42;98971.59;;;10.88;100.00
3206;BME280;1615;53.602;11.418;2023-03-13T08:56:09;98962.69;;;10.91;100.00
3206;BME280;1615;53.602;11.418;2023-03-13T08:58:35;98956.84;;;10.93;100.00
3206;BME280;1615;53.602;11.418;2023-03-13T09:01:02;98955.84;;;10.97;100.00
3206;BME280;1615;53.602;11.418;2023-03-13T09:03:29;98823.09;;;10.18;100.00
3206;BME280;1615;53.602;11.418;2023-03-13T09:06:01;98946.59;;;11.02;100.00
3206;BME280;1615;53.602;11.418;2023-03-13T09:08:27;98952.31;;;11.09;100.00
3206;BME280;1615;53.602;11.418;2023-03-13T09:10:54;98839.41;;;10.47;100.00
3206;BME280;1615;53.602;11.418;2023-03-13T09:13:20;98983.06;;;11.14;100.00
3206;BME280;1615;53.602;11.418;2023-03-13T09:18:23;98934.19;;;11.28;100.00
3206;BME280;1615;53.602;11.418;2023-03-13T09:20:49;98927.88;;;11.28;100.00
3206;BME280;1615;53.602;11.418;2023-03-13T09:23:15;98924.47;;;11.31;100.00
3206;BME280;1615;53.602;11.418;2023-03-13T09:25:41;98915.75;;;11.41;100.00
3206;BME280;1615;53.602;11.418;2023-03-13T09:28:06;98914.16;;;11.40;100.00
3206;BME280;1615;53.602;11.418;2023-03-13T09:30:31;98910.50;;;11.48;100.00
3206;BME280;1615;53.602;11.418;2023-03-13T09:32:57;98912.09;;;11.49;100.00
3206;BME280;1615;53.602;11.418;2023-03-13T09:35:22;98905.94;;;11.52;100.00
3206;BME280;1615;53.602;11.418;2023-03-13T09:37:48;98901.63;;;11.63;100.00
3206;BME280;1615;53.602;11.418;2023-03-13T09:40:15;98750.13;;;10.82;100.00
3206;BME280;1615;53.602;11.418;2023-03-13T09:42:50;98892.34;;;11.67;100.00
3206;BME280;1615;53.602;11.418;2023-03-13T09:45:41;98895.91;;;11.68;100.00
3206;BME280;1615;53.602;11.418;2023-03-13T09:48:27;98896.44;;;11.73;100.00
3206;BME280;1615;53.602;11.418;2023-03-13T09:51:18;98884.63;;;11.85;100.00
3206;BME280;1615;53.602;11.418;2023-03-13T09:54:08;98885.78;;;11.84;100.00
3206;BME280;1615;53.602;11.418;2023-03-13T09:57:05;98885.75;;;11.96;100.00
3206;BME280;1615;53.602;11.418;2023-03-13T09:59:46;98896.25;;;12.06;100.00
3206;BME280;1615;53.602;11.418;2023-03-13T10:02:24;98885.13;;;12.14;100.00
3206;BME280;1615;53.602;11.418;2023-03-13T10:04:55;98867.38;;;12.12;100.00
3206;BME280;1615;53.602;11.418;2023-03-13T10:07:22;98893.41;;;12.30;100.00
3206;BME280;1615;53.602;11.418;2023-03-13T10:09:47;98884.00;;;12.31;100.00
3206;BME280;1615;53.602;11.418;2023-03-13T10:12:22;98881.91;;;12.40;100.00
3206;BME280;1615;53.602;11.418;2023-03-13T10:17:41;98883.44;;;12.53;100.00
3206;BME280;1615;53.602;11.418;2023-03-13T10:22:35;98886.03;;;12.61;100.00
3206;BME280;1615;53.602;11.418;2023-03-13T10:25:20;98887.00;;;12.69;100.00
3206;BME280;1615;53.602;11.418;2023-03-13T10:27:49;98898.47;;;12.71;100.00
3206;BME280;1615;53.602;11.418;2023-03-13T10:30:22;98880.66;;;12.80;100.00
3206;BME280;1615;53.602;11.418;2023-03-13T10:32:49;98867.88;;;12.88;100.00
3206;BME280;1615;53.602;11.418;2023-03-13T10:35:31;98882.97;;;12.94;100.00
3206;BME280;1615;53.602;11.418;2023-03-13T10:38:04;98871.72;;;12.99;100.00
3206;BME280;1615;53.602;11.418;2023-03-13T10:40:30;98880.41;;;13.01;100.00
3206;BME280;1615;53.602;11.418;2023-03-13T10:43:01;98864.44;;;13.06;100.00
3206;BME280;1615;53.602;11.418;2023-03-13T10:45:31;98883.69;;;13.06;100.00
3206;BME280;1615;53.602;11.418;2023-03-13T10:48:14;98886.44;;;13.22;100.00
3206;BME280;1615;53.602;11.418;2023-03-13T10:50:51;98877.13;;;13.26;100.00
3206;BME280;1615;53.602;11.418;2023-03-13T10:55:57;98878.41;;;13.48;100.00
3206;BME280;1615;53.602;11.418;2023-03-13T10:58:39;98887.84;;;13.47;100.00
3206;BME280;1615;53.602;11.418;2023-03-13T11:01:17;98880.63;;;13.58;100.00
3206;BME280;1615;53.602;11.418;2023-03-13T11:03:45;98900.03;;;13.65;100.00
3206;BME280;1615;53.602;11.418;2023-03-13T11:11:27;98875.66;;;13.82;100.00
3206;BME280;1615;53.602;11.418;2023-03-13T11:14:06;98883.72;;;13.91;100.00
3206;BME280;1615;53.602;11.418;2023-03-13T11:16:37;98774.88;;;13.24;100.00
3206;BME280;1615;53.602;11.418;2023-03-13T11:19:13;98891.00;;;13.99;100.00
3206;BME280;1615;53.602;11.418;2023-03-13T11:24:25;98886.38;;;14.22;100.00
3206;BME280;1615;53.602;11.418;2023-03-13T11:27:10;98882.03;;;14.40;100.00
3206;BME280;1615;53.602;11.418;2023-03-13T11:29:50;98877.78;;;14.65;100.00
3206;BME280;1615;53.602;11.418;2023-03-13T11:32:25;98888.28;;;14.78;100.00
3206;BME280;1615;53.602;11.418;2023-03-13T11:35:02;98869.69;;;14.98;100.00
3206;BME280;1615;53.602;11.418;2023-03-13T11:37:32;98877.00;;;15.09;100.00
3206;BME280;1615;53.602;11.418;2023-03-13T11:43:12;98868.34;;;15.59;100.00
3206;BME280;1615;53.602;11.418;2023-03-13T11:45:52;98859.56;;;15.76;100.00
3206;BME280;1615;53.602;11.418;2023-03-13T11:51:27;98854.56;;;15.89;100.00
3206;BME280;1615;53.602;11.418;2023-03-13T11:56:37;98859.63;;;16.13;100.00
3206;BME280;1615;53.602;11.418;2023-03-13T11:59:21;98852.47;;;16.08;100.00
3206;BME280;1615;53.602;11.418;2023-03-13T12:01:54;98841.53;;;16.19;100.00
3206;BME280;1615;53.602;11.418;2023-03-13T12:04:44;98842.03;;;16.28;100.00
3206;BME280;1615;53.602;11.418;2023-03-13T12:07:34;98843.28;;;16.34;100.00
3206;BME280;1615;53.602;11.418;2023-03-13T12:10:03;98843.34;;;16.37;100.00
3206;BME280;1615;53.602;11.418;2023-03-13T12:12:39;98841.06;;;16.43;100.00
3206;BME280;1615;53.602;11.418;2023-03-13T12:15:24;98830.56;;;16.59;100.00
3206;BME280;1615;53.602;11.418;2023-03-13T12:18:05;98819.09;;;16.60;100.00
3206;BME280;1615;53.602;11.418;2023-03-13T12:20:43;98813.75;;;16.78;100.00
3206;BME280;1615;53.602;11.418;2023-03-13T12:23:27;98719.81;;;16.12;100.00
3206;BME280;1615;53.602;11.418;2023-03-13T12:25:57;98822.28;;;16.59;100.00
3206;BME280;1615;53.602;11.418;2023-03-13T12:28:32;98820.75;;;16.65;100.00
3206;BME280;1615;53.602;11.418;2023-03-13T12:36:34;98814.25;;;16.50;100.00
3206;BME280;1615;53.602;11.418;2023-03-13T12:41:37;97545.56;;;8.68;100.00
3206;BME280;1615;53.602;11.418;2023-03-13T12:44:07;98797.78;;;16.61;100.00
3206;BME280;1615;53.602;11.418;2023-03-13T12:50:07;98789.91;;;16.66;100.00
3206;BME280;1615;53.602;11.418;2023-03-13T12:55:22;98787.84;;;17.00;100.00
3206;BME280;1615;53.602;11.418;2023-03-13T13:00:34;98760.16;;;17.00;100.00
3206;BME280;1615;53.602;11.418;2023-03-13T13:06:12;98721.31;;;16.86;100.00
3206;BME280;1615;53.602;11.418;2023-03-13T13:16:40;98769.59;;;17.42;100.00
3206;BME280;1615;53.602;11.418;2023-03-13T13:25:31;98692.59;;;17.08;100.00
3206;BME280;1615;53.602;11.418;2023-03-13T13:28:33;98766.94;;;17.67;100.00
3206;BME280;1615;53.602;11.418;2023-03-13T13:30:56;98757.84;;;17.70;100.00
3206;BME280;1615;53.602;11.418;2023-03-13T13:38:42;98760.59;;;17.70;100.00
3206;BME280;1615;53.602;11.418;2023-03-13T13:46:46;98747.53;;;17.60;100.00
3206;BME280;1615;53.602;11.418;2023-03-13T13:49:18;98744.66;;;17.46;100.00
3206;BME280;1615;53.602;11.418;2023-03-13T13:57:22;98745.41;;;17.39;100.00
3206;BME280;1615;53.602;11.418;2023-03-13T13:59:50;98739.97;;;17.53;100.00
3206;BME280;1615;53.602;11.418;2023-03-13T14:02:18;98723.38;;;17.67;100.00
3206;BME280;1615;53.602;11.418;2023-03-13T14:05:00;98714.75;;;17.83;100.00
3206;BME280;1615;53.602;11.418;2023-03-13T14:10:33;98703.28;;;17.88;100.00
3206;BME280;1615;53.602;11.418;2023-03-13T14:13:00;98724.28;;;17.89;100.00
3206;BME280;1615;53.602;11.418;2023-03-13T14:15:28;98721.84;;;17.77;100.00
3206;BME280;1615;53.602;11.418;2023-03-13T14:18:40;98713.13;;;17.75;100.00
3206;BME280;1615;53.602;11.418;2023-03-13T14:21:03;98698.81;;;17.59;100.00
3206;BME280;1615;53.602;11.418;2023-03-13T14:23:45;98689.72;;;17.55;100.00
3206;BME280;1615;53.602;11.418;2023-03-13T14:26:12;98706.41;;;17.76;100.00
3206;BME280;1615;53.602;11.418;2023-03-13T14:28:43;98712.34;;;17.71;100.00
3206;BME280;1615;53.602;11.418;2023-03-13T14:31:09;98601.25;;;17.15;100.00
3206;BME280;1615;53.602;11.418;2023-03-13T14:33:36;98701.28;;;17.85;100.00
3206;BME280;1615;53.602;11.418;2023-03-13T14:36:02;98697.34;;;17.93;100.00
3206;BME280;1615;53.602;11.418;2023-03-13T14:38:28;98699.75;;;17.98;100.00
3206;BME280;1615;53.602;11.418;2023-03-13T14:40:59;98667.25;;;17.84;100.00
3206;BME280;1615;53.602;11.418;2023-03-13T14:43:34;98696.59;;;18.10;100.00
3206;BME280;1615;53.602;11.418;2023-03-13T14:46:12;98693.44;;;18.08;100.00